sensor_id;sensor_type;location;lat;lon;timestamp;P1;durP1;ratioP1;P2;durP2;ratioP2
73779;SDS011;62093;37.614;15.072;2023-03-12T00:02:05;4.47;;;1.80;;
73779;SDS011;62093;37.614;15.072;2023-03-12T00:04:35;5.22;;;1.70;;
73779;SDS011;62093;37.614;15.072;2023-03-12T00:07:04;6.27;;;2.13;;
73779;SDS011;62093;37.614;15.072;2023-03-12T00:09:40;5.70;;;1.55;;
73779;SDS011;62093;37.614;15.072;2023-03-12T00:12:06;4.60;;;1.70;;
73779;SDS011;62093;37.614;15.072;2023-03-12T00:14:33;4.30;;;1.52;;
73779;SDS011;62093;37.614;15.072;2023-03-12T00:17:24;5.18;;;1.80;;
73779;SDS011;62093;37.614;15.072;2023-03-12T00:19:57;4.73;;;1.60;;
73779;SDS011;62093;37.614;15.072;2023-03-12T00:22:33;4.65;;;1.58;;
73779;SDS011;62093;37.614;15.072;2023-03-12T00:25:06;5.07;;;1.70;;
73779;SDS011;62093;37.614;15.072;2023-03-12T00:27:36;6.00;;;2.00;;
73779;SDS011;62093;37.614;15.072;2023-03-12T00:30:04;4.75;;;1.70;;
73779;SDS011;62093;37.614;15.072;2023-03-12T00:32:35;5.57;;;1.93;;
73779;SDS011;62093;37.614;15.072;2023-03-12T00:35:06;4.47;;;1.60;;
73779;SDS011;62093;37.614;15.072;2023-03-12T00:37:48;5.40;;;1.70;;
73779;SDS011;62093;37.614;15.072;2023-03-12T00:40:21;4.15;;;1.60;;
73779;SDS011;62093;37.614;15.072;2023-03-12T00:42:47;4.25;;;1.63;;
73779;SDS011;62093;37.614;15.072;2023-03-12T00:45:21;4.67;;;1.50;;
73779;SDS011;62093;37.614;15.072;2023-03-12T00:47:48;4.65;;;1.30;;
73779;SDS011;62093;37.614;15.072;2023-03-12T00:50:25;4.10;;;1.40;;
73779;SDS011;62093;37.614;15.072;2023-03-12T00:52:57;4.32;;;1.48;;
73779;SDS011;62093;37.614;15.072;2023-03-12T00:55:36;4.43;;;1.65;;
73779;SDS011;62093;37.614;15.072;2023-03-12T00:58:08;4.07;;;1.40;;
73779;SDS011;62093;37.614;15.072;2023-03-12T01:00:49;4.60;;;1.77;;
73779;SDS011;62093;37.614;15.072;2023-03-12T01:03:19;4.43;;;1.80;;
73779;SDS011;62093;37.614;15.072;2023-03-12T01:05:48;4.55;;;1.83;;
73779;SDS011;62093;37.614;15.072;2023-03-12T01:08:36;4.22;;;1.60;;
73779;SDS011;62093;37.614;15.072;2023-03-12T01:11:13;5.30;;;1.77;;
73779;SDS011;62093;37.614;15.072;2023-03-12T01:13:51;5.38;;;1.30;;
73779;SDS011;62093;37.614;15.072;2023-03-12T01:16:22;4.75;;;1.73;;
73779;SDS011;62093;37.614;15.072;2023-03-12T01:18:56;3.80;;;1.40;;
73779;SDS011;62093;37.614;15.072;2023-03-12T01:21:30;4.15;;;1.35;;
73779;SDS011;62093;37.614;15.072;2023-03-12T01:23:56;4.60;;;1.50;;
73779;SDS011;62093;37.614;15.072;2023-03-12T01:26:31;4.40;;;1.52;;
73779;SDS011;62093;37.614;15.072;2023-03-12T01:29:04;3.75;;;1.40;;
73779;SDS011;62093;37.614;15.072;2023-03-12T01:31:46;4.82;;;1.55;;
73779;SDS011;62093;37.614;15.072;2023-03-12T01:34:13;3.95;;;1.60;;
73779;SDS011;62093;37.614;15.072;2023-03-12T01:36:58;4.67;;;1.63;;
73779;SDS011;62093;37.614;15.072;2023-03-12T01:39:27;4.40;;;1.58;;
73779;SDS011;62093;37.614;15.072;2023-03-12T01:42:02;4.70;;;1.65;;
73779;SDS011;62093;37.614;15.072;2023-03-12T01:44:53;5.03;;;1.63;;
73779;SDS011;62093;37.614;15.072;2023-03-12T01:47:25;4.57;;;1.67;;
73779;SDS011;62093;37.614;15.072;2023-03-12T01:50:00;4.27;;;1.43;;
73779;SDS011;62093;37.614;15.072;2023-03-12T01:52:29;4.95;;;1.73;;
73779;SDS011;62093;37.614;15.072;2023-03-12T01:55:03;6.20;;;2.00;;
73779;SDS011;62093;37.614;15.072;2023-03-12T01:57:43;4.43;;;1.70;;
73779;SDS011;62093;37.614;15.072;2023-03-12T02:00:20;4.28;;;1.30;;
73779;SDS011;62093;37.614;15.072;2023-03-12T02:02:49;4.00;;;1.30;;
73779;SDS011;62093;37.614;15.072;2023-03-12T02:08:09;4.40;;;1.42;;
73779;SDS011;62093;37.614;15.072;2023-03-12T02:10:36;4.38;;;1.70;;
73779;SDS011;62093;37.614;15.072;2023-03-12T02:13:02;4.80;;;1.60;;
73779;SDS011;62093;37.614;15.072;2023-03-12T02:15:28;4.50;;;1.70;;
73779;SDS011;62093;37.614;15.072;2023-03-12T02:17:55;4.47;;;1.60;;
73779;SDS011;62093;37.614;15.072;2023-03-12T02:20:27;4.80;;;1.60;;
73779;SDS011;62093;37.614;15.072;2023-03-12T02:26:09;4.63;;;1.40;;
73779;SDS011;62093;37.614;15.072;2023-03-12T02:28:37;4.43;;;1.40;;
73779;SDS011;62093;37.614;15.072;2023-03-12T02:31:10;5.78;;;1.73;;
73779;SDS011;62093;37.614;15.072;2023-03-12T02:33:38;5.18;;;1.65;;
73779;SDS011;62093;37.614;15.072;2023-03-12T02:36:04;4.63;;;1.60;;
73779;SDS011;62093;37.614;15.072;2023-03-12T02:38:32;4.57;;;1.70;;
73779;SDS011;62093;37.614;15.072;2023-03-12T02:43:38;4.90;;;1.60;;
73779;SDS011;62093;37.614;15.072;2023-03-12T02:46:05;4.03;;;1.50;;
73779;SDS011;62093;37.614;15.072;2023-03-12T02:48:33;4.78;;;1.40;;
73779;SDS011;62093;37.614;15.072;2023-03-12T02:50:59;4.50;;;1.60;;
73779;SDS011;62093;37.614;15.072;2023-03-12T02:53:28;4.28;;;1.50;;
73779;SDS011;62093;37.614;15.072;2023-03-12T02:55:54;4.93;;;1.92;;
73779;SDS011;62093;37.614;15.072;2023-03-12T02:58:20;5.05;;;1.67;;
73779;SDS011;62093;37.614;15.072;2023-03-12T03:00:46;6.32;;;1.50;;
73779;SDS011;62093;37.614;15.072;2023-03-12T03:03:14;4.30;;;1.30;;
73779;SDS011;62093;37.614;15.072;2023-03-12T03:05:40;4.68;;;1.60;;
73779;SDS011;62093;37.614;15.072;2023-03-12T03:08:10;4.05;;;1.60;;
73779;SDS011;62093;37.614;15.072;2023-03-12T03:10:36;5.15;;;1.60;;
73779;SDS011;62093;37.614;15.072;2023-03-12T03:13:02;4.90;;;1.70;;
73779;SDS011;62093;37.614;15.072;2023-03-12T03:15:28;4.32;;;1.65;;
73779;SDS011;62093;37.614;15.072;2023-03-12T03:17:54;4.78;;;1.80;;
73779;SDS011;62093;37.614;15.072;2023-03-12T03:20:20;4.65;;;1.73;;
73779;SDS011;62093;37.614;15.072;2023-03-12T03:22:47;4.30;;;1.50;;
73779;SDS011;62093;37.614;15.072;2023-03-12T03:25:12;3.88;;;1.50;;
73779;SDS011;62093;37.614;15.072;2023-03-12T03:27:38;4.70;;;1.50;;
73779;SDS011;62093;37.614;15.072;2023-03-12T03:30:05;4.07;;;1.70;;
73779;SDS011;62093;37.614;15.072;2023-03-12T03:32:36;5.57;;;1.47;;
73779;SDS011;62093;37.614;15.072;2023-03-12T03:35:02;4.25;;;1.75;;
73779;SDS011;62093;37.614;15.072;2023-03-12T03:37:29;4.72;;;1.60;;
73779;SDS011;62093;37.614;15.072;2023-03-12T03:39:55;5.45;;;1.58;;
73779;SDS011;62093;37.614;15.072;2023-03-12T03:42:21;4.30;;;1.50;;
73779;SDS011;62093;37.614;15.072;2023-03-12T03:44:47;4.63;;;1.67;;
73779;SDS011;62093;37.614;15.072;2023-03-12T03:47:13;4.82;;;1.45;;
73779;SDS011;62093;37.614;15.072;2023-03-12T03:49:39;4.68;;;1.73;;
73779;SDS011;62093;37.614;15.072;2023-03-12T03:52:05;4.47;;;1.20;;
73779;SDS011;62093;37.614;15.072;2023-03-12T03:54:34;4.50;;;1.33;;
73779;SDS011;62093;37.614;15.072;2023-03-12T03:57:01;4.80;;;1.52;;
73779;SDS011;62093;37.614;15.072;2023-03-12T03:59:29;4.60;;;1.50;;
73779;SDS011;62093;37.614;15.072;2023-03-12T04:01:56;4.82;;;1.80;;
73779;SDS011;62093;37.614;15.072;2023-03-12T04:04:22;5.73;;;1.70;;
73779;SDS011;62093;37.614;15.072;2023-03-12T04:06:49;4.43;;;1.60;;
73779;SDS011;62093;37.614;15.072;2023-03-12T04:09:15;4.30;;;1.50;;
73779;SDS011;62093;37.614;15.072;2023-03-12T04:11:41;4.72;;;1.98;;
73779;SDS011;62093;37.614;15.072;2023-03-12T04:14:09;5.93;;;1.67;;
73779;SDS011;62093;37.614;15.072;2023-03-12T04:16:38;5.20;;;1.80;;
73779;SDS011;62093;37.614;15.072;2023-03-12T04:19:04;4.80;;;1.90;;
73779;SDS011;62093;37.614;15.072;2023-03-12T04:21:30;4.35;;;1.60;;
73779;SDS011;62093;37.614;15.072;2023-03-12T04:23:56;4.50;;;1.60;;
73779;SDS011;62093;37.614;15.072;2023-03-12T04:26:26;4.97;;;1.30;;
73779;SDS011;62093;37.614;15.072;2023-03-12T04:28:53;4.43;;;1.80;;
73779;SDS011;62093;37.614;15.072;2023-03-12T04:31:19;4.85;;;1.40;;
73779;SDS011;62093;37.614;15.072;2023-03-12T04:33:49;4.38;;;1.45;;
73779;SDS011;62093;37.614;15.072;2023-03-12T04:36:16;4.72;;;1.50;;
73779;SDS011;62093;37.614;15.072;2023-03-12T04:38:45;4.50;;;1.60;;
73779;SDS011;62093;37.614;15.072;2023-03-12T04:41:13;4.17;;;1.70;;
73779;SDS011;62093;37.614;15.072;2023-03-12T04:44:06;4.18;;;1.58;;
73779;SDS011;62093;37.614;15.072;2023-03-12T04:46:34;4.40;;;1.70;;
73779;SDS011;62093;37.614;15.072;2023-03-12T04:49:00;4.50;;;1.40;;
73779;SDS011;62093;37.614;15.072;2023-03-12T04:51:29;4.90;;;1.60;;
73779;SDS011;62093;37.614;15.072;2023-03-12T04:53:56;3.92;;;1.38;;
73779;SDS011;62093;37.614;15.072;2023-03-12T04:56:22;3.97;;;1.50;;
73779;SDS011;62093;37.614;15.072;2023-03-12T04:58:49;4.43;;;1.50;;
73779;SDS011;62093;37.614;15.072;2023-03-12T05:01:26;4.93;;;1.70;;
73779;SDS011;62093;37.614;15.072;2023-03-12T05:03:57;4.63;;;1.60;;
73779;SDS011;62093;37.614;15.072;2023-03-12T05:06:24;4.70;;;1.80;;
73779;SDS011;62093;37.614;15.072;2023-03-12T05:08:50;4.50;;;1.35;;
73779;SDS011;62093;37.614;15.072;2023-03-12T05:11:16;4.55;;;1.63;;
73779;SDS011;62093;37.614;15.072;2023-03-12T05:13:43;4.70;;;1.75;;
73779;SDS011;62093;37.614;15.072;2023-03-12T05:16:09;4.20;;;1.33;;
73779;SDS011;62093;37.614;15.072;2023-03-12T05:18:36;4.50;;;1.50;;
73779;SDS011;62093;37.614;15.072;2023-03-12T05:21:06;3.90;;;1.42;;
73779;SDS011;62093;37.614;15.072;2023-03-12T05:23:36;4.60;;;1.48;;
73779;SDS011;62093;37.614;15.072;2023-03-12T05:26:13;4.10;;;1.70;;
73779;SDS011;62093;37.614;15.072;2023-03-12T05:28:44;4.40;;;1.50;;
73779;SDS011;62093;37.614;15.072;2023-03-12T05:31:10;4.32;;;1.30;;
73779;SDS011;62093;37.614;15.072;2023-03-12T05:33:38;5.18;;;1.55;;
73779;SDS011;62093;37.614;15.072;2023-03-12T05:36:05;4.95;;;1.40;;
73779;SDS011;62093;37.614;15.072;2023-03-12T05:38:32;4.20;;;1.55;;
73779;SDS011;62093;37.614;15.072;2023-03-12T05:40:58;5.23;;;1.70;;
73779;SDS011;62093;37.614;15.072;2023-03-12T05:43:26;3.90;;;1.35;;
73779;SDS011;62093;37.614;15.072;2023-03-12T05:45:53;4.63;;;1.55;;
73779;SDS011;62093;37.614;15.072;2023-03-12T05:48:22;4.40;;;1.48;;
73779;SDS011;62093;37.614;15.072;2023-03-12T05:50:48;4.30;;;1.60;;
73779;SDS011;62093;37.614;15.072;2023-03-12T05:53:14;4.10;;;1.70;;
73779;SDS011;62093;37.614;15.072;2023-03-12T05:55:41;4.28;;;1.50;;
73779;SDS011;62093;37.614;15.072;2023-03-12T05:58:08;4.55;;;1.25;;
73779;SDS011;62093;37.614;15.072;2023-03-12T06:00:35;4.78;;;1.75;;
73779;SDS011;62093;37.614;15.072;2023-03-12T06:03:04;4.53;;;1.60;;
73779;SDS011;62093;37.614;15.072;2023-03-12T06:05:31;3.83;;;1.27;;
73779;SDS011;62093;37.614;15.072;2023-03-12T06:08:00;4.90;;;1.75;;
73779;SDS011;62093;37.614;15.072;2023-03-12T06:10:28;5.10;;;1.40;;
73779;SDS011;62093;37.614;15.072;2023-03-12T06:12:54;4.63;;;1.50;;
73779;SDS011;62093;37.614;15.072;2023-03-12T06:15:21;4.33;;;1.50;;
73779;SDS011;62093;37.614;15.072;2023-03-12T06:17:47;4.88;;;1.55;;
73779;SDS011;62093;37.614;15.072;2023-03-12T06:20:13;4.03;;;1.58;;
73779;SDS011;62093;37.614;15.072;2023-03-12T06:22:39;4.65;;;1.70;;
73779;SDS011;62093;37.614;15.072;2023-03-12T06:25:05;4.37;;;1.73;;
73779;SDS011;62093;37.614;15.072;2023-03-12T06:27:33;4.57;;;1.67;;
73779;SDS011;62093;37.614;15.072;2023-03-12T06:29:59;4.00;;;1.67;;
73779;SDS011;62093;37.614;15.072;2023-03-12T06:32:25;3.90;;;1.27;;
73779;SDS011;62093;37.614;15.072;2023-03-12T06:34:50;4.87;;;1.60;;
73779;SDS011;62093;37.614;15.072;2023-03-12T06:37:16;4.57;;;1.65;;
73779;SDS011;62093;37.614;15.072;2023-03-12T06:39:42;5.10;;;1.40;;
73779;SDS011;62093;37.614;15.072;2023-03-12T06:42:08;4.83;;;1.70;;
73779;SDS011;62093;37.614;15.072;2023-03-12T06:44:34;4.05;;;1.60;;
73779;SDS011;62093;37.614;15.072;2023-03-12T06:47:00;4.25;;;1.70;;
73779;SDS011;62093;37.614;15.072;2023-03-12T06:49:26;5.53;;;1.80;;
73779;SDS011;62093;37.614;15.072;2023-03-12T06:51:56;4.53;;;1.40;;
73779;SDS011;62093;37.614;15.072;2023-03-12T06:54:22;4.28;;;1.27;;
73779;SDS011;62093;37.614;15.072;2023-03-12T06:56:48;4.10;;;1.50;;
73779;SDS011;62093;37.614;15.072;2023-03-12T06:59:13;5.17;;;1.30;;
73779;SDS011;62093;37.614;15.072;2023-03-12T07:01:39;4.10;;;1.40;;
73779;SDS011;62093;37.614;15.072;2023-03-12T07:04:05;4.53;;;1.63;;
73779;SDS011;62093;37.614;15.072;2023-03-12T07:06:31;4.20;;;1.40;;
73779;SDS011;62093;37.614;15.072;2023-03-12T07:08:57;4.38;;;1.67;;
73779;SDS011;62093;37.614;15.072;2023-03-12T07:11:23;4.23;;;1.40;;
73779;SDS011;62093;37.614;15.072;2023-03-12T07:13:48;4.75;;;1.50;;
73779;SDS011;62093;37.614;15.072;2023-03-12T07:16:15;4.13;;;1.40;;
73779;SDS011;62093;37.614;15.072;2023-03-12T07:18:41;4.00;;;1.27;;
73779;SDS011;62093;37.614;15.072;2023-03-12T07:21:07;3.50;;;1.20;;
73779;SDS011;62093;37.614;15.072;2023-03-12T07:23:33;4.45;;;1.65;;
73779;SDS011;62093;37.614;15.072;2023-03-12T07:25:59;3.80;;;1.45;;
73779;SDS011;62093;37.614;15.072;2023-03-12T07:28:25;5.17;;;1.47;;
73779;SDS011;62093;37.614;15.072;2023-03-12T07:30:51;4.60;;;1.65;;
73779;SDS011;62093;37.614;15.072;2023-03-12T07:33:17;5.37;;;1.40;;
73779;SDS011;62093;37.614;15.072;2023-03-12T07:35:45;4.15;;;1.20;;
73779;SDS011;62093;37.614;15.072;2023-03-12T07:38:11;5.20;;;1.40;;
73779;SDS011;62093;37.614;15.072;2023-03-12T07:40:37;4.53;;;1.30;;
73779;SDS011;62093;37.614;15.072;2023-03-12T07:43:04;3.90;;;1.40;;
73779;SDS011;62093;37.614;15.072;2023-03-12T07:45:38;4.13;;;1.30;;
73779;SDS011;62093;37.614;15.072;2023-03-12T07:48:05;4.05;;;1.50;;
73779;SDS011;62093;37.614;15.072;2023-03-12T07:50:31;4.47;;;1.50;;
73779;SDS011;62093;37.614;15.072;2023-03-12T07:52:58;4.10;;;1.35;;
73779;SDS011;62093;37.614;15.072;2023-03-12T07:55:25;5.10;;;1.50;;
73779;SDS011;62093;37.614;15.072;2023-03-12T07:57:51;4.15;;;1.30;;
73779;SDS011;62093;37.614;15.072;2023-03-12T08:00:20;4.82;;;1.40;;
73779;SDS011;62093;37.614;15.072;2023-03-12T08:02:46;4.13;;;1.40;;
73779;SDS011;62093;37.614;15.072;2023-03-12T08:05:12;4.27;;;1.40;;
73779;SDS011;62093;37.614;15.072;2023-03-12T08:07:38;4.45;;;1.48;;
73779;SDS011;62093;37.614;15.072;2023-03-12T08:10:05;5.45;;;1.52;;
73779;SDS011;62093;37.614;15.072;2023-03-12T08:12:35;4.47;;;1.20;;
73779;SDS011;62093;37.614;15.072;2023-03-12T08:15:05;5.55;;;1.30;;
73779;SDS011;62093;37.614;15.072;2023-03-12T08:17:32;4.97;;;1.50;;
73779;SDS011;62093;37.614;15.072;2023-03-12T08:19:59;4.28;;;1.35;;
73779;SDS011;62093;37.614;15.072;2023-03-12T08:22:24;3.90;;;1.27;;
73779;SDS011;62093;37.614;15.072;2023-03-12T08:24:50;3.78;;;1.27;;
73779;SDS011;62093;37.614;15.072;2023-03-12T08:27:16;5.25;;;1.10;;
73779;SDS011;62093;37.614;15.072;2023-03-12T08:29:42;3.93;;;1.20;;
73779;SDS011;62093;37.614;15.072;2023-03-12T08:32:08;3.97;;;1.50;;
73779;SDS011;62093;37.614;15.072;2023-03-12T08:34:38;5.47;;;1.35;;
73779;SDS011;62093;37.614;15.072;2023-03-12T08:37:04;5.57;;;1.33;;
73779;SDS011;62093;37.614;15.072;2023-03-12T08:39:30;3.90;;;1.47;;
73779;SDS011;62093;37.614;15.072;2023-03-12T08:41:56;6.90;;;1.40;;
73779;SDS011;62093;37.614;15.072;2023-03-12T08:44:23;5.10;;;1.63;;
73779;SDS011;62093;37.614;15.072;2023-03-12T08:46:49;4.15;;;1.27;;
73779;SDS011;62093;37.614;15.072;2023-03-12T08:49:15;4.40;;;1.10;;
73779;SDS011;62093;37.614;15.072;2023-03-12T08:51:41;5.20;;;1.40;;
73779;SDS011;62093;37.614;15.072;2023-03-12T08:54:07;5.65;;;1.35;;
73779;SDS011;62093;37.614;15.072;2023-03-12T08:56:33;4.37;;;1.37;;
73779;SDS011;62093;37.614;15.072;2023-03-12T08:59:06;6.82;;;1.30;;
73779;SDS011;62093;37.614;15.072;2023-03-12T09:01:36;5.07;;;1.20;;
73779;SDS011;62093;37.614;15.072;2023-03-12T09:04:03;5.63;;;1.13;;
73779;SDS011;62093;37.614;15.072;2023-03-12T09:06:29;3.45;;;1.05;;
73779;SDS011;62093;37.614;15.072;2023-03-12T09:08:55;5.30;;;1.20;;
73779;SDS011;62093;37.614;15.072;2023-03-12T09:11:22;5.03;;;1.13;;
73779;SDS011;62093;37.614;15.072;2023-03-12T09:13:48;4.43;;;1.00;;
73779;SDS011;62093;37.614;15.072;2023-03-12T09:16:13;3.83;;;1.00;;
73779;SDS011;62093;37.614;15.072;2023-03-12T09:18:42;4.43;;;1.20;;
73779;SDS011;62093;37.614;15.072;2023-03-12T09:21:08;4.90;;;1.20;;
73779;SDS011;62093;37.614;15.072;2023-03-12T09:23:34;4.75;;;1.23;;
73779;SDS011;62093;37.614;15.072;2023-03-12T09:26:00;5.03;;;1.20;;
73779;SDS011;62093;37.614;15.072;2023-03-12T09:28:26;4.32;;;1.20;;
73779;SDS011;62093;37.614;15.072;2023-03-12T09:30:51;5.72;;;1.02;;
73779;SDS011;62093;37.614;15.072;2023-03-12T09:33:17;3.63;;;0.90;;
73779;SDS011;62093;37.614;15.072;2023-03-12T09:35:43;4.35;;;1.02;;
73779;SDS011;62093;37.614;15.072;2023-03-12T09:38:13;3.60;;;1.00;;
73779;SDS011;62093;37.614;15.072;2023-03-12T09:40:42;4.40;;;1.13;;
73779;SDS011;62093;37.614;15.072;2023-03-12T09:43:15;4.00;;;0.90;;
73779;SDS011;62093;37.614;15.072;2023-03-12T09:45:44;4.03;;;1.10;;
73779;SDS011;62093;37.614;15.072;2023-03-12T09:48:16;5.47;;;1.30;;
73779;SDS011;62093;37.614;15.072;2023-03-12T09:50:45;3.43;;;0.93;;
73779;SDS011;62093;37.614;15.072;2023-03-12T09:55:46;4.55;;;1.00;;
73779;SDS011;62093;37.614;15.072;2023-03-12T09:58:16;5.45;;;0.98;;
73779;SDS011;62093;37.614;15.072;2023-03-12T10:00:50;3.88;;;1.00;;
73779;SDS011;62093;37.614;15.072;2023-03-12T10:03:28;3.33;;;0.73;;
73779;SDS011;62093;37.614;15.072;2023-03-12T10:06:20;4.07;;;0.85;;
73779;SDS011;62093;37.614;15.072;2023-03-12T10:09:04;5.20;;;1.30;;
73779;SDS011;62093;37.614;15.072;2023-03-12T10:14:52;4.68;;;0.85;;
73779;SDS011;62093;37.614;15.072;2023-03-12T10:20:09;3.60;;;1.00;;
73779;SDS011;62093;37.614;15.072;2023-03-12T10:28:30;4.78;;;1.00;;
73779;SDS011;62093;37.614;15.072;2023-03-12T10:31:03;4.60;;;1.00;;
73779;SDS011;62093;37.614;15.072;2023-03-12T10:33:40;3.70;;;0.95;;
73779;SDS011;62093;37.614;15.072;2023-03-12T10:36:14;3.03;;;0.82;;
73779;SDS011;62093;37.614;15.072;2023-03-12T10:38:42;4.57;;;0.90;;
73779;SDS011;62093;37.614;15.072;2023-03-12T10:41:13;3.50;;;0.70;;
73779;SDS011;62093;37.614;15.072;2023-03-12T10:43:40;3.17;;;0.67;;
73779;SDS011;62093;37.614;15.072;2023-03-12T10:48:38;4.22;;;0.90;;
73779;SDS011;62093;37.614;15.072;2023-03-12T10:51:08;4.07;;;1.00;;
73779;SDS011;62093;37.614;15.072;2023-03-12T10:53:39;3.38;;;0.60;;
73779;SDS011;62093;37.614;15.072;2023-03-12T10:56:10;3.83;;;0.80;;
73779;SDS011;62093;37.614;15.072;2023-03-12T10:58:41;4.78;;;0.82;;
73779;SDS011;62093;37.614;15.072;2023-03-12T11:01:17;4.20;;;0.98;;
73779;SDS011;62093;37.614;15.072;2023-03-12T11:09:40;5.83;;;0.80;;
73779;SDS011;62093;37.614;15.072;2023-03-12T11:12:22;4.82;;;1.15;;
73779;SDS011;62093;37.614;15.072;2023-03-12T11:14:55;3.70;;;1.00;;
73779;SDS011;62093;37.614;15.072;2023-03-12T11:17:25;4.28;;;0.90;;
73779;SDS011;62093;37.614;15.072;2023-03-12T11:19:52;3.85;;;1.13;;
73779;SDS011;62093;37.614;15.072;2023-03-12T11:22:31;4.63;;;1.17;;
73779;SDS011;62093;37.614;15.072;2023-03-12T11:25:00;5.18;;;1.17;;
73779;SDS011;62093;37.614;15.072;2023-03-12T11:30:06;3.67;;;0.90;;
73779;SDS011;62093;37.614;15.072;2023-03-12T11:32:36;3.38;;;0.60;;
73779;SDS011;62093;37.614;15.072;2023-03-12T11:35:09;4.73;;;1.60;;
73779;SDS011;62093;37.614;15.072;2023-03-12T11:37:41;6.10;;;1.08;;
73779;SDS011;62093;37.614;15.072;2023-03-12T11:40:18;4.78;;;0.90;;
73779;SDS011;62093;37.614;15.072;2023-03-12T11:46:02;4.22;;;1.40;;
73779;SDS011;62093;37.614;15.072;2023-03-12T11:48:48;4.03;;;1.03;;
73779;SDS011;62093;37.614;15.072;2023-03-12T12:05:25;3.10;;;0.70;;
73779;SDS011;62093;37.614;15.072;2023-03-12T12:16:38;3.73;;;0.90;;
73779;SDS011;62093;37.614;15.072;2023-03-12T12:19:20;5.20;;;1.25;;
73779;SDS011;62093;37.614;15.072;2023-03-12T12:24:40;3.30;;;0.60;;
73779;SDS011;62093;37.614;15.072;2023-03-12T12:27:23;4.72;;;1.20;;
73779;SDS011;62093;37.614;15.072;2023-03-12T12:32:30;4.00;;;1.10;;
73779;SDS011;62093;37.614;15.072;2023-03-12T12:35:35;3.60;;;1.17;;
73779;SDS011;62093;37.614;15.072;2023-03-12T12:38:05;3.78;;;1.13;;
73779;SDS011;62093;37.614;15.072;2023-03-12T12:43:27;4.22;;;1.20;;
73779;SDS011;62093;37.614;15.072;2023-03-12T12:46:03;4.90;;;1.40;;
73779;SDS011;62093;37.614;15.072;2023-03-12T12:51:52;4.20;;;1.30;;
73779;SDS011;62093;37.614;15.072;2023-03-12T12:54:25;5.80;;;1.40;;
73779;SDS011;62093;37.614;15.072;2023-03-12T12:57:06;4.28;;;1.13;;
73779;SDS011;62093;37.614;15.072;2023-03-12T13:02:31;4.25;;;1.23;;
73779;SDS011;62093;37.614;15.072;2023-03-12T13:04:59;4.65;;;1.30;;
73779;SDS011;62093;37.614;15.072;2023-03-12T13:09:52;3.67;;;1.00;;
73779;SDS011;62093;37.614;15.072;2023-03-12T13:15:00;4.03;;;1.08;;
73779;SDS011;62093;37.614;15.072;2023-03-12T13:20:31;3.87;;;1.10;;
73779;SDS011;62093;37.614;15.072;2023-03-12T13:23:40;3.88;;;1.20;;
73779;SDS011;62093;37.614;15.072;2023-03-12T13:33:49;4.20;;;1.30;;
73779;SDS011;62093;37.614;15.072;2023-03-12T13:38:55;4.38;;;1.40;;
73779;SDS011;62093;37.614;15.072;2023-03-12T13:44:00;3.67;;;1.00;;
73779;SDS011;62093;37.614;15.072;2023-03-12T13:52:29;3.38;;;0.75;;
73779;SDS011;62093;37.614;15.072;2023-03-12T13:57:50;5.50;;;1.77;;
73779;SDS011;62093;37.614;15.072;2023-03-12T14:00:26;4.13;;;1.20;;
73779;SDS011;62093;37.614;15.072;2023-03-12T14:02:58;5.45;;;1.20;;
73779;SDS011;62093;37.614;15.072;2023-03-12T14:05:26;6.05;;;1.30;;
73779;SDS011;62093;37.614;15.072;2023-03-12T14:16:17;8.30;;;1.65;;
73779;SDS011;62093;37.614;15.072;2023-03-12T14:18:46;6.47;;;1.50;;
73779;SDS011;62093;37.614;15.072;2023-03-12T14:21:15;7.82;;;2.15;;
73779;SDS011;62093;37.614;15.072;2023-03-12T14:23:48;8.85;;;1.67;;
73779;SDS011;62093;37.614;15.072;2023-03-12T14:26:19;11.27;;;1.90;;
73779;SDS011;62093;37.614;15.072;2023-03-12T14:29:03;11.55;;;2.15;;
73779;SDS011;62093;37.614;15.072;2023-03-12T14:31:34;7.35;;;2.05;;
73779;SDS011;62093;37.614;15.072;2023-03-12T14:34:07;11.27;;;2.33;;
73779;SDS011;62093;37.614;15.072;2023-03-12T14:36:46;6.43;;;0.90;;
73779;SDS011;62093;37.614;15.072;2023-03-12T14:39:34;6.20;;;1.33;;
73779;SDS011;62093;37.614;15.072;2023-03-12T14:42:06;7.88;;;1.30;;
73779;SDS011;62093;37.614;15.072;2023-03-12T14:44:34;9.18;;;1.30;;
73779;SDS011;62093;37.614;15.072;2023-03-12T14:47:03;5.72;;;1.00;;
73779;SDS011;62093;37.614;15.072;2023-03-12T14:49:42;7.43;;;1.23;;
73779;SDS011;62093;37.614;15.072;2023-03-12T14:52:10;4.57;;;1.10;;
73779;SDS011;62093;37.614;15.072;2023-03-12T14:54:57;7.72;;;1.67;;
73779;SDS011;62093;37.614;15.072;2023-03-12T14:57:27;6.07;;;1.40;;
73779;SDS011;62093;37.614;15.072;2023-03-12T14:59:54;6.47;;;1.10;;
73779;SDS011;62093;37.614;15.072;2023-03-12T15:02:21;5.27;;;1.03;;
73779;SDS011;62093;37.614;15.072;2023-03-12T15:04:49;6.10;;;1.50;;
73779;SDS011;62093;37.614;15.072;2023-03-12T15:07:21;5.70;;;1.20;;
73779;SDS011;62093;37.614;15.072;2023-03-12T15:09:52;7.30;;;1.08;;
73779;SDS011;62093;37.614;15.072;2023-03-12T15:12:19;10.18;;;2.30;;
73779;SDS011;62093;37.614;15.072;2023-03-12T15:14:49;9.17;;;1.60;;
73779;SDS011;62093;37.614;15.072;2023-03-12T15:17:19;9.27;;;1.27;;
73779;SDS011;62093;37.614;15.072;2023-03-12T15:19:47;5.53;;;1.52;;
73779;SDS011;62093;37.614;15.072;2023-03-12T15:22:16;7.88;;;1.60;;
73779;SDS011;62093;37.614;15.072;2023-03-12T15:24:45;10.00;;;1.50;;
73779;SDS011;62093;37.614;15.072;2023-03-12T15:27:20;7.03;;;1.50;;
73779;SDS011;62093;37.614;15.072;2023-03-12T15:29:47;4.80;;;1.30;;
73779;SDS011;62093;37.614;15.072;2023-03-12T15:32:14;6.45;;;1.75;;
73779;SDS011;62093;37.614;15.072;2023-03-12T15:34:41;5.43;;;1.48;;
73779;SDS011;62093;37.614;15.072;2023-03-12T15:37:23;5.53;;;1.55;;
73779;SDS011;62093;37.614;15.072;2023-03-12T15:40:04;9.07;;;1.80;;
73779;SDS011;62093;37.614;15.072;2023-03-12T15:42:36;8.48;;;1.67;;
73779;SDS011;62093;37.614;15.072;2023-03-12T15:45:04;6.57;;;1.33;;
73779;SDS011;62093;37.614;15.072;2023-03-12T15:47:40;6.93;;;1.70;;
73779;SDS011;62093;37.614;15.072;2023-03-12T15:50:11;5.70;;;1.55;;
73779;SDS011;62093;37.614;15.072;2023-03-12T15:55:31;9.77;;;1.85;;
73779;SDS011;62093;37.614;15.072;2023-03-12T15:57:59;9.52;;;1.70;;
73779;SDS011;62093;37.614;15.072;2023-03-12T16:00:29;7.00;;;1.70;;
73779;SDS011;62093;37.614;15.072;2023-03-12T16:03:13;8.35;;;1.83;;
73779;SDS011;62093;37.614;15.072;2023-03-12T16:05:43;5.60;;;1.63;;
73779;SDS011;62093;37.614;15.072;2023-03-12T16:10:42;7.20;;;1.98;;
73779;SDS011;62093;37.614;15.072;2023-03-12T16:13:10;12.85;;;1.98;;
73779;SDS011;62093;37.614;15.072;2023-03-12T16:15:39;6.05;;;1.48;;
73779;SDS011;62093;37.614;15.072;2023-03-12T16:18:09;6.43;;;1.50;;
73779;SDS011;62093;37.614;15.072;2023-03-12T16:20:43;7.75;;;2.05;;
73779;SDS011;62093;37.614;15.072;2023-03-12T16:23:11;7.35;;;2.22;;
73779;SDS011;62093;37.614;15.072;2023-03-12T16:25:37;6.05;;;1.80;;
73779;SDS011;62093;37.614;15.072;2023-03-12T16:28:05;9.00;;;2.67;;
73779;SDS011;62093;37.614;15.072;2023-03-12T16:30:33;14.00;;;3.00;;
73779;SDS011;62093;37.614;15.072;2023-03-12T16:33:01;8.32;;;2.03;;
73779;SDS011;62093;37.614;15.072;2023-03-12T16:35:28;8.40;;;2.13;;
73779;SDS011;62093;37.614;15.072;2023-03-12T16:37:56;7.85;;;2.15;;
73779;SDS011;62093;37.614;15.072;2023-03-12T16:40:25;7.70;;;2.60;;
73779;SDS011;62093;37.614;15.072;2023-03-12T16:42:52;7.80;;;2.27;;
73779;SDS011;62093;37.614;15.072;2023-03-12T16:45:19;7.72;;;2.20;;
73779;SDS011;62093;37.614;15.072;2023-03-12T16:47:46;7.07;;;1.75;;